createdAt,value
2022-10-19T00:01:24.923Z,13.17
2022-10-19T00:05:41.091Z,13.49
2022-10-19T00:09:57.291Z,13.08
2022-10-19T00:14:16.195Z,13.30
2022-10-19T00:18:32.321Z,13.08
2022-10-19T00:22:50.978Z,13.14
2022-10-19T00:27:07.128Z,13.39
2022-10-19T00:31:23.415Z,13.31
2022-10-19T00:35:42.888Z,13.22
2022-10-19T00:39:59.096Z,13.22
2022-10-19T00:44:16.118Z,13.51
2022-10-19T00:48:33.452Z,13.34
2022-10-19T00:52:49.527Z,13.46
2022-10-19T00:57:06.887Z,13.59
2022-10-19T01:01:24.821Z,13.62
2022-10-19T01:05:41.431Z,13.60
2022-10-19T01:09:57.910Z,13.86
2022-10-19T01:14:44.662Z,13.65
2022-10-19T01:19:11.031Z,13.72
2022-10-19T01:23:59.577Z,13.44
2022-10-19T01:28:28.719Z,13.53
2022-10-19T01:33:04.871Z,13.92
2022-10-19T01:37:37.830Z,13.42
2022-10-19T01:42:22.700Z,13.39
2022-10-19T01:46:50.177Z,13.57
2022-10-19T01:51:15.151Z,13.39
2022-10-19T01:55:32.537Z,13.15
2022-10-19T01:59:49.549Z,13.37
2022-10-19T02:04:05.938Z,13.26
2022-10-19T02:08:27.949Z,13.24
2022-10-19T02:12:44.596Z,13.41
2022-10-19T02:17:06.233Z,13.62
2022-10-19T02:21:22.546Z,13.62
2022-10-19T02:25:38.627Z,13.76
2022-10-19T02:29:54.955Z,13.96
2022-10-19T02:34:11.676Z,14.00
2022-10-19T02:38:27.991Z,13.86
2022-10-19T02:43:00.711Z,13.99
2022-10-19T02:47:25.712Z,14.00
2022-10-19T02:52:02.568Z,13.75
2022-10-19T02:56:18.716Z,13.93
2022-10-19T03:00:35.029Z,14.04
2022-10-19T03:04:51.113Z,13.87
2022-10-19T03:09:07.290Z,13.94
2022-10-19T03:13:23.390Z,13.78
2022-10-19T03:17:39.488Z,13.95
2022-10-19T03:21:55.734Z,13.87
2022-10-19T03:26:14.608Z,13.75
2022-10-19T03:30:30.818Z,13.80
2022-10-19T03:34:46.948Z,14.06
2022-10-19T03:39:14.064Z,14.05
2022-10-19T03:43:30.216Z,13.93
2022-10-19T03:47:50.476Z,14.03
2022-10-19T03:52:06.740Z,13.83
2022-10-19T03:56:24.979Z,13.43
2022-10-19T04:00:41.110Z,13.57
2022-10-19T04:04:58.324Z,13.56
2022-10-19T04:09:17.134Z,13.62
2022-10-19T04:13:33.957Z,13.50
2022-10-19T04:17:50.139Z,13.46
2022-10-19T04:22:06.261Z,13.31
2022-10-19T04:26:22.498Z,13.69
2022-10-19T04:30:38.746Z,13.49
2022-10-19T04:34:54.844Z,13.37
2022-10-19T04:39:10.981Z,12.84
2022-10-19T04:43:27.102Z,13.37
2022-10-19T04:47:43.184Z,13.32
2022-10-19T04:51:59.292Z,13.23
2022-10-19T04:56:20.787Z,13.52
2022-10-19T05:00:39.125Z,13.48
2022-10-19T05:04:55.255Z,13.12
2022-10-19T05:09:11.754Z,13.29
2022-10-19T05:13:27.873Z,13.11
2022-10-19T05:17:44.166Z,13.30
2022-10-19T05:22:00.349Z,13.32
2022-10-19T05:26:18.983Z,13.19
2022-10-19T05:30:35.281Z,13.08
2022-10-19T05:34:51.460Z,13.27
2022-10-19T05:39:15.914Z,13.03
2022-10-19T05:43:32.067Z,13.06
2022-10-19T05:47:48.238Z,12.93
2022-10-19T05:52:04.414Z,12.88
2022-10-19T05:56:26.238Z,13.21
2022-10-19T06:00:42.404Z,13.74
2022-10-19T06:04:58.619Z,14.49
2022-10-19T06:09:14.924Z,14.83
2022-10-19T06:13:31.150Z,14.83
2022-10-19T06:17:47.232Z,14.32
2022-10-19T06:22:03.365Z,14.29
2022-10-19T06:26:20.758Z,14.26
2022-10-19T06:30:41.117Z,14.09
2022-10-19T06:34:57.317Z,14.22
2022-10-19T06:39:13.764Z,14.35
2022-10-19T06:43:29.990Z,14.28
2022-10-19T06:52:07.877Z,14.01
2022-10-19T06:56:27.525Z,14.17
2022-10-19T07:00:43.681Z,14.32
2022-10-19T07:05:04.470Z,14.19
2022-10-19T07:09:23.163Z,14.35
2022-10-19T07:13:39.643Z,14.96
2022-10-19T07:17:55.785Z,14.51
2022-10-19T07:22:15.532Z,13.47
2022-10-19T07:26:35.100Z,14.37
2022-10-19T07:30:51.247Z,14.09
2022-10-19T07:35:07.732Z,14.69
2022-10-19T07:39:23.983Z,15.00
2022-10-19T07:43:40.718Z,15.24
2022-10-19T07:47:57.066Z,14.82
2022-10-19T07:52:13.310Z,15.44
2022-10-19T07:56:30.340Z,16.09
2022-10-19T08:00:46.765Z,16.39
2022-10-19T08:05:06.206Z,16.48
2022-10-19T08:09:50.781Z,16.55
2022-10-19T08:14:02.922Z,15.38
2022-10-19T08:18:19.174Z,15.72
2022-10-19T08:22:35.886Z,16.46
2022-10-19T08:26:52.446Z,16.13
2022-10-19T08:31:16.947Z,17.02
2022-10-19T08:35:33.072Z,17.52
2022-10-19T08:39:49.376Z,17.59
2022-10-19T08:44:23.723Z,17.26
2022-10-19T08:48:43.166Z,17.37
2022-10-19T08:53:05.957Z,18.31
2022-10-19T08:57:27.058Z,18.29
2022-10-19T09:02:03.813Z,18.55
2022-10-19T09:06:27.745Z,19.08
2022-10-19T09:10:46.404Z,19.51
2022-10-19T09:15:07.280Z,20.33
2022-10-19T09:19:26.387Z,20.58
2022-10-19T09:23:58.991Z,20.71
2022-10-19T09:28:40.539Z,21.24
2022-10-19T09:33:01.368Z,21.94
2022-10-19T09:37:25.659Z,22.23
2022-10-19T09:41:55.948Z,22.38
2022-10-19T09:46:20.320Z,23.02
2022-10-19T09:50:36.722Z,22.87
2022-10-19T09:55:04.877Z,22.93
2022-10-19T09:59:28.557Z,23.60
2022-10-19T10:03:53.753Z,23.52
2022-10-19T10:08:17.071Z,23.31
2022-10-19T10:12:35.065Z,22.46
2022-10-19T10:17:02.670Z,23.29
2022-10-19T10:21:34.847Z,23.56
2022-10-19T10:25:51.050Z,22.95
2022-10-19T10:30:10.860Z,23.23
2022-10-19T10:35:01.314Z,22.38
2022-10-19T10:39:18.029Z,22.67
2022-10-19T10:43:36.593Z,22.21
2022-10-19T10:47:53.580Z,22.44
2022-10-19T10:52:17.570Z,22.93
2022-10-19T10:56:34.588Z,22.73
2022-10-19T11:00:52.031Z,23.31
2022-10-19T11:05:21.818Z,23.13
2022-10-19T11:09:43.307Z,22.29
2022-10-19T11:14:46.832Z,23.22
2022-10-19T11:19:19.417Z,23.18
2022-10-19T11:23:57.718Z,23.20
2022-10-19T11:28:13.921Z,23.32
2022-10-19T11:32:47.875Z,23.65
2022-10-19T11:37:19.367Z,24.21
2022-10-19T11:41:56.804Z,24.00
2022-10-19T11:46:26.283Z,24.72
2022-10-19T11:51:17.296Z,24.25
2022-10-19T11:55:52.793Z,24.05
2022-10-19T12:00:37.569Z,24.46
2022-10-19T12:05:28.198Z,25.17
2022-10-19T12:10:12.882Z,24.69
2022-10-19T12:14:33.408Z,24.64
2022-10-19T12:19:00.679Z,24.78
2022-10-19T12:23:34.509Z,24.80
2022-10-19T12:27:51.817Z,23.59
2022-10-19T12:32:08.447Z,23.75
2022-10-19T12:36:24.853Z,24.16
2022-10-19T12:41:08.298Z,24.09
2022-10-19T12:45:52.517Z,24.22
2022-10-19T12:50:08.940Z,24.22
2022-10-19T12:54:31.360Z,24.44
2022-10-19T12:58:50.929Z,23.60
2022-10-19T13:03:25.175Z,22.54
2022-10-19T13:07:48.182Z,23.11
2022-10-19T13:12:21.330Z,23.62
2022-10-19T13:16:57.568Z,23.55
2022-10-19T13:21:33.894Z,23.67
2022-10-19T13:26:10.153Z,23.31
2022-10-19T13:30:35.554Z,24.03
2022-10-19T13:34:51.801Z,23.91
2022-10-19T13:39:13.719Z,24.26
2022-10-19T13:43:54.028Z,24.82
2022-10-19T13:48:21.723Z,24.49
2022-10-19T13:52:40.652Z,23.89
2022-10-19T13:57:18.359Z,23.27
2022-10-19T14:02:13.339Z,23.47
2022-10-19T14:06:48.008Z,23.11
2022-10-19T14:11:34.088Z,23.42
2022-10-19T14:15:55.973Z,23.36
2022-10-19T14:20:32.599Z,23.67
2022-10-19T14:24:48.764Z,23.70
2022-10-19T14:29:04.970Z,23.20
2022-10-19T14:33:21.380Z,23.12
2022-10-19T14:37:38.129Z,23.50
2022-10-19T14:41:57.156Z,24.15
2022-10-19T14:46:16.535Z,24.60
2022-10-19T14:50:54.354Z,26.90
2022-10-19T14:55:20.249Z,28.91
2022-10-19T14:59:46.762Z,30.54
2022-10-19T15:04:03.754Z,30.69
2022-10-19T15:08:32.697Z,29.05
2022-10-19T15:12:51.258Z,28.82
2022-10-19T15:17:21.450Z,27.26
2022-10-19T15:21:38.058Z,25.35
2022-10-19T15:26:01.699Z,23.84
2022-10-19T15:30:32.948Z,23.34
2022-10-19T15:34:49.309Z,21.59
2022-10-19T15:43:57.679Z,19.84
2022-10-19T15:48:22.295Z,18.43
2022-10-19T15:52:38.498Z,18.48
2022-10-19T15:56:56.624Z,18.53
2022-10-19T16:01:19.318Z,17.84
2022-10-19T16:05:36.616Z,17.70
2022-10-19T16:09:53.460Z,17.20
2022-10-19T16:14:09.664Z,16.82
2022-10-19T16:18:26.004Z,16.62
2022-10-19T16:22:43.197Z,16.83
2022-10-19T16:26:59.453Z,16.32
2022-10-19T16:31:15.984Z,16.51
2022-10-19T16:35:32.236Z,16.36
2022-10-19T16:39:48.360Z,16.24
2022-10-19T16:44:04.583Z,16.14
2022-10-19T16:48:24.172Z,15.92
2022-10-19T16:52:40.466Z,15.81
2022-10-19T16:56:56.696Z,15.87
2022-10-19T17:01:19.055Z,15.31
2022-10-19T17:05:39.394Z,15.44
2022-10-19T17:09:55.799Z,15.13
2022-10-19T17:14:13.272Z,15.12
2022-10-19T17:18:29.493Z,14.51
2022-10-19T17:22:45.591Z,14.85
2022-10-19T17:27:03.562Z,14.79
2022-10-19T17:31:20.002Z,14.57
2022-10-19T17:35:36.237Z,14.75
2022-10-19T17:39:52.779Z,14.42
2022-10-19T17:44:08.881Z,14.81
2022-10-19T17:48:25.336Z,14.63
2022-10-19T17:52:41.510Z,14.73
2022-10-19T17:56:58.045Z,14.37
2022-10-19T18:01:15.386Z,14.41
2022-10-19T18:05:31.706Z,13.66
2022-10-19T18:09:48.185Z,13.93
2022-10-19T18:14:05.086Z,13.90
2022-10-19T18:18:23.214Z,14.07
2022-10-19T18:27:03.958Z,14.00
2022-10-19T18:31:25.723Z,13.78
2022-10-19T18:35:42.018Z,13.81
2022-10-19T18:39:58.116Z,13.85
2022-10-19T18:44:14.554Z,13.71
2022-10-19T18:48:30.845Z,13.92
2022-10-19T18:52:47.127Z,13.82
2022-10-19T18:57:03.316Z,13.79
2022-10-19T19:01:25.235Z,13.72
2022-10-19T19:05:41.486Z,13.88
2022-10-19T19:09:57.641Z,13.80
2022-10-19T19:14:18.868Z,14.00
2022-10-19T19:18:35.727Z,13.47
2022-10-19T19:22:51.969Z,13.60
2022-10-19T19:27:08.271Z,13.32
2022-10-19T19:31:25.206Z,13.32
2022-10-19T19:35:45.121Z,13.32
2022-10-19T19:40:01.253Z,13.12
2022-10-19T19:44:18.224Z,13.33
2022-10-19T19:48:34.357Z,13.22
2022-10-19T19:52:51.869Z,13.17
2022-10-19T19:57:08.210Z,13.50
2022-10-19T20:01:25.052Z,13.51
2022-10-19T20:05:41.698Z,13.17
2022-10-19T20:09:58.269Z,12.99
2022-10-19T20:14:14.544Z,12.99
2022-10-19T20:18:30.758Z,12.92
2022-10-19T20:22:48.043Z,12.87
2022-10-19T20:27:04.145Z,12.59
2022-10-19T20:31:21.177Z,12.73
2022-10-19T20:35:38.524Z,12.87
2022-10-19T20:39:54.611Z,12.73
2022-10-19T20:44:10.800Z,12.49
2022-10-19T20:48:26.936Z,12.57
2022-10-19T20:52:43.080Z,12.60
2022-10-19T20:56:59.550Z,12.18
2022-10-19T21:01:18.075Z,12.50
2022-10-19T21:05:37.482Z,12.15
2022-10-19T21:09:55.470Z,12.38
2022-10-19T21:14:14.148Z,12.53
2022-10-19T21:18:30.271Z,12.27
2022-10-19T21:22:46.439Z,12.33
2022-10-19T21:27:05.041Z,12.02
2022-10-19T21:31:23.286Z,12.23
2022-10-19T21:35:39.462Z,12.05
2022-10-19T21:39:55.616Z,11.69
2022-10-19T21:44:12.360Z,11.46
2022-10-19T21:48:29.662Z,11.84
2022-10-19T21:52:45.783Z,11.76
2022-10-19T21:57:03.163Z,11.58
2022-10-19T22:01:22.084Z,11.66
2022-10-19T22:05:38.450Z,11.50
2022-10-19T22:09:55.205Z,11.68
2022-10-19T22:14:12.833Z,11.10
2022-10-19T22:18:28.927Z,11.37
2022-10-19T22:22:45.118Z,11.20
2022-10-19T22:27:01.405Z,11.41
2022-10-19T22:31:17.558Z,11.05
2022-10-19T22:35:33.731Z,11.03
2022-10-19T22:39:49.872Z,11.03
2022-10-19T22:44:43.839Z,10.76
2022-10-19T22:48:59.962Z,11.19
2022-10-19T22:53:16.094Z,10.85
2022-10-19T22:57:32.232Z,11.16
2022-10-19T23:01:48.512Z,10.92
2022-10-19T23:06:05.219Z,10.73
2022-10-19T23:10:21.707Z,10.69
2022-10-19T23:14:37.821Z,10.90
2022-10-19T23:18:54.077Z,10.30
2022-10-19T23:23:10.576Z,10.24
2022-10-19T23:27:26.906Z,10.13
2022-10-19T23:31:43.488Z,9.93
2022-10-19T23:36:07.889Z,10.12
2022-10-19T23:40:24.020Z,10.35
2022-10-19T23:44:40.133Z,10.44
2022-10-19T23:48:56.239Z,10.14
2022-10-19T23:53:12.415Z,10.43
2022-10-19T23:57:28.608Z,10.07
